Time;durP1;ratioP1;P1;durP2;ratioP2;P2;SDS_P1;SDS_P2;PMS_P1;PMS_P2;Temp;Humidity;BMP_temperature;BMP_pressure;BME280_temperature;BME280_humidity;BME280_pressure;Samples;Min_cycle;Max_cycle;Signal;HPM_P1;HPM_P2
2022/01/24 05:01:54;;;;;;;20.73;12.77;;;;;;;-7.54;100.00;95553.53;5434574;23;20452;-76
2022/01/24 05:04:19;;;;;;;22.20;12.45;;;;;;;-7.51;100.00;95560.97;4947955;29;20043;-76
2022/01/24 05:06:45;;;;;;;16.42;12.05;;;;;;;-7.47;100.00;95562.53;4932985;28;20039;-76
2022/01/24 05:09:11;;;;;;;20.98;14.10;;;;;;;-7.63;100.00;95557.16;4930877;29;20035;-76
2022/01/24 05:24:43;;;;;;;19.83;12.77;;;;;;;-7.96;100.00;95598.38;4948871;28;20039;-77
2022/01/24 05:27:08;;;;;;;21.35;13.27;;;;;;;-7.82;100.00;95592.94;4932343;29;20039;-77
2022/01/24 05:29:34;;;;;;;20.90;12.63;;;;;;;-7.86;100.00;95604.78;4930603;29;20125;-77
2022/01/24 05:31:59;;;;;;;23.85;13.05;;;;;;;-7.92;100.00;95594.09;4916546;28;20042;-76
2022/01/24 05:34:25;;;;;;;19.45;12.40;;;;;;;-7.60;100.00;95591.41;4914999;29;20439;-77
2022/01/24 05:36:50;;;;;;;22.95;13.80;;;;;;;-7.53;100.00;95607.97;4932949;29;20082;-77
2022/01/24 05:39:16;;;;;;;22.05;14.32;;;;;;;-8.13;100.00;95615.63;4930809;29;20416;-77
2022/01/24 05:41:41;;;;;;;19.35;12.00;;;;;;;-8.36;100.00;95625.50;4931935;29;20531;-76
2022/01/24 05:44:07;;;;;;;21.30;13.30;;;;;;;-7.80;100.00;95636.44;4947195;28;20556;-76
2022/01/24 05:46:33;;;;;;;18.30;11.80;;;;;;;-7.57;100.00;95634.06;4931928;29;20035;-77
2022/01/24 05:49:00;;;;;;;14.68;10.80;;;;;;;-7.41;100.00;95621.84;4915827;29;20115;-77
2022/01/24 05:51:25;;;;;;;16.75;12.48;;;;;;;-7.31;100.00;95633.25;4930401;29;20027;-77
2022/01/24 05:53:51;;;;;;;21.35;13.55;;;;;;;-7.33;100.00;95624.94;4949789;28;20114;-77
2022/01/24 05:56:17;;;;;;;24.08;14.60;;;;;;;-7.28;100.00;95625.63;4927970;29;20475;-77
2022/01/24 05:58:42;;;;;;;25.60;16.83;;;;;;;-7.28;100.00;95631.47;4948794;29;20035;-76
2022/01/24 06:01:07;;;;;;;24.25;14.45;;;;;;;-7.29;100.00;95617.28;4928212;29;20050;-76
2022/01/24 06:03:33;;;;;;;36.35;19.60;;;;;;;-7.16;100.00;95628.56;4947501;29;20027;-76
2022/01/24 06:05:58;;;;;;;27.48;18.70;;;;;;;-7.24;100.00;95635.53;4931952;29;20126;-75
2022/01/24 06:08:25;;;;;;;21.42;14.20;;;;;;;-7.27;100.00;95642.34;4933825;29;20081;-75
2022/01/24 06:10:53;;;;;;;28.13;15.95;;;;;;;-7.18;100.00;95650.44;4934312;29;20039;-75
2022/01/24 06:13:18;;;;;;;32.33;17.42;;;;;;;-7.21;100.00;95642.16;4950508;29;20027;-75
2022/01/24 06:15:44;;;;;;;27.85;15.00;;;;;;;-7.12;100.00;95652.75;4935480;29;20027;-75
2022/01/24 06:18:10;;;;;;;41.63;20.92;;;;;;;-7.07;100.00;95630.81;4933669;28;20437;-76
2022/01/24 06:20:35;;;;;;;64.78;32.08;;;;;;;-7.07;100.00;95655.16;4934449;29;20054;-75
2022/01/24 06:23:01;;;;;;;22.77;12.95;;;;;;;-7.16;100.00;95661.25;4933878;29;20114;-76
2022/01/24 06:25:28;;;;;;;14.48;10.73;;;;;;;-7.08;100.00;95674.44;4950535;29;20122;-75
2022/01/24 06:27:53;;;;;;;14.13;10.73;;;;;;;-6.76;100.00;95667.56;4932903;29;20035;-76
2022/01/24 06:30:20;;;;;;;34.75;17.75;;;;;;;-6.98;100.00;95669.94;4950058;29;20039;-75
2022/01/24 06:32:45;;;;;;;29.30;14.82;;;;;;;-6.94;100.00;95674.00;4928142;29;20019;-76
2022/01/24 06:35:13;;;;;;;19.52;11.20;;;;;;;-7.06;100.00;95685.25;4945969;29;20028;-75
2022/01/24 06:37:38;;;;;;;16.55;11.45;;;;;;;-7.00;100.00;95689.31;4916042;29;20028;-75
2022/01/24 06:40:05;;;;;;;18.73;10.90;;;;;;;-6.77;100.00;95686.84;4924968;29;20038;-76
2022/01/24 06:42:31;;;;;;;16.17;11.38;;;;;;;-6.83;100.00;95697.13;4949937;28;20043;-75
2022/01/24 06:44:56;;;;;;;13.68;9.30;;;;;;;-6.75;100.00;95685.13;4931776;29;20106;-75
2022/01/24 06:47:22;;;;;;;8.38;6.60;;;;;;;-6.04;100.00;95695.31;4933092;29;20424;-76
2022/01/24 06:49:48;;;;;;;15.90;9.65;;;;;;;-6.23;100.00;95701.84;4934281;29;20064;-75
2022/01/24 06:52:14;;;;;;;8.68;5.65;;;;;;;-6.02;100.00;95702.78;4917277;29;20110;-75
2022/01/24 06:54:41;;;;;;;7.38;5.28;;;;;;;-5.83;98.36;95707.97;4951482;28;20480;-76
2022/01/24 06:57:08;;;;;;;10.38;5.82;;;;;;;-5.62;97.42;95702.97;4917070;29;20041;-75
2022/01/24 06:59:35;;;;;;;10.32;6.45;;;;;;;-5.46;100.00;95693.19;4918676;29;20031;-76
2022/01/24 07:02:00;;;;;;;8.48;6.97;;;;;;;-5.50;100.00;95701.72;4949225;29;20074;-75
2022/01/24 07:04:25;;;;;;;7.55;6.15;;;;;;;-5.69;100.00;95710.84;4950176;28;20058;-75
2022/01/24 07:06:51;;;;;;;12.50;6.32;;;;;;;-5.67;100.00;95709.06;4950067;28;20046;-75
2022/01/24 07:09:16;;;;;;;7.18;5.72;;;;;;;-5.58;100.00;95703.69;4933384;29;20038;-75
2022/01/24 07:11:42;;;;;;;7.97;6.85;;;;;;;-5.43;99.69;95715.75;4933698;29;20034;-75
2022/01/24 07:14:12;;;;;;;7.30;6.13;;;;;;;-5.21;100.00;95706.50;4931900;29;20389;-75
2022/01/24 07:17:03;;;;;;;7.85;6.40;;;;;;;-5.22;100.00;95714.94;4935312;29;20111;-75
2022/01/24 07:19:29;;;;;;;7.65;5.95;;;;;;;-5.17;98.44;95710.56;4943880;28;20035;-75
2022/01/24 07:21:56;;;;;;;7.00;5.72;;;;;;;-5.11;98.52;95719.59;4914084;29;20146;-75
2022/01/24 07:24:22;;;;;;;7.13;5.88;;;;;;;-5.04;98.76;95718.50;4933443;29;20035;-75
2022/01/24 07:26:47;;;;;;;8.93;6.65;;;;;;;-5.01;99.75;95720.91;4932007;29;20015;-75
2022/01/24 07:29:13;;;;;;;8.32;6.25;;;;;;;-5.11;99.32;95714.56;4933495;29;20570;-76
2022/01/24 07:31:38;;;;;;;8.98;6.57;;;;;;;-5.01;98.95;95731.00;4931406;29;20487;-75
2022/01/24 07:34:04;;;;;;;10.32;6.88;;;;;;;-5.01;98.48;95734.31;4934172;29;20062;-76
2022/01/24 07:36:30;;;;;;;9.30;6.78;;;;;;;-5.01;98.04;95736.84;4932409;29;20091;-76
2022/01/24 07:38:55;;;;;;;8.90;6.78;;;;;;;-4.92;99.01;95743.25;4933906;29;20042;-74
2022/01/24 07:41:27;;;;;;;8.93;6.95;;;;;;;-4.97;99.48;95743.44;4933426;29;20085;-75
2022/01/24 07:43:53;;;;;;;9.20;6.88;;;;;;;-4.83;99.87;95750.47;4933877;29;20020;-74
2022/01/24 07:46:18;;;;;;;8.23;7.18;;;;;;;-4.89;100.00;95764.16;4934159;29;20035;-75
2022/01/24 07:48:44;;;;;;;9.23;7.30;;;;;;;-4.74;100.00;95756.88;4932155;29;20039;-76
2022/01/24 07:51:10;;;;;;;18.92;8.20;;;;;;;-4.78;99.42;95759.50;4933821;29;20166;-75
2022/01/24 07:53:36;;;;;;;12.23;7.82;;;;;;;-4.80;99.65;95753.72;4931341;29;20035;-75
2022/01/24 07:56:01;;;;;;;8.98;8.02;;;;;;;-4.82;98.33;95764.75;4950666;28;20477;-75
2022/01/24 07:58:28;;;;;;;10.60;7.82;;;;;;;-4.80;97.22;95766.34;4932173;29;20054;-75
2022/01/24 08:00:54;;;;;;;10.75;7.70;;;;;;;-4.78;96.57;95769.63;4915107;29;20032;-75
2022/01/24 08:03:19;;;;;;;9.27;7.72;;;;;;;-4.56;96.14;95772.13;4900329;29;20531;-75
2022/01/24 08:05:45;;;;;;;8.98;7.45;;;;;;;-4.40;95.64;95764.78;4921729;29;20027;-75
2022/01/24 08:08:10;;;;;;;9.75;7.75;;;;;;;-4.22;94.51;95783.44;4950272;28;20028;-75
2022/01/24 08:10:36;;;;;;;10.45;7.43;;;;;;;-4.12;93.85;95770.38;4931839;29;20035;-75
2022/01/24 08:13:02;;;;;;;9.52;7.47;;;;;;;-3.85;92.84;95776.78;4933243;29;20488;-75
2022/01/24 08:15:27;;;;;;;10.55;8.73;;;;;;;-3.89;91.55;95775.31;4931059;28;20023;-75
2022/01/24 08:17:53;;;;;;;10.73;8.60;;;;;;;-3.87;91.18;95765.94;4932755;28;20039;-75
2022/01/24 08:20:19;;;;;;;12.75;9.60;;;;;;;-4.18;91.92;95764.75;4945247;28;20031;-75
2022/01/24 08:22:45;;;;;;;14.00;9.40;;;;;;;-4.17;91.56;95772.25;4951979;28;20030;-75
2022/01/24 08:25:11;;;;;;;11.45;8.30;;;;;;;-3.99;91.10;95773.22;4946791;29;20143;-76
2022/01/24 08:27:37;;;;;;;12.20;7.65;;;;;;;-3.93;89.60;95770.44;4915466;29;20488;-75
2022/01/24 08:30:11;;;;;;;9.38;7.40;;;;;;;-3.81;88.84;95773.25;4932104;29;20110;-75
2022/01/24 08:32:37;;;;;;;7.25;6.53;;;;;;;-3.15;86.95;95778.00;4931821;29;20050;-75
2022/01/24 08:35:03;;;;;;;11.48;7.53;;;;;;;-2.54;83.43;95776.03;4950336;28;20062;-75
2022/01/24 08:37:29;;;;;;;9.52;7.97;;;;;;;-1.86;78.70;95787.94;4932277;29;20390;-75
2022/01/24 08:39:56;;;;;;;10.40;8.32;;;;;;;-2.09;78.30;95790.78;4932239;29;20035;-75
2022/01/24 08:47:23;;;;;;;8.25;6.97;;;;;;;-2.08;74.71;95787.31;4950413;29;20496;-74
2022/01/24 08:49:49;;;;;;;7.13;6.25;;;;;;;-1.29;73.30;95795.19;4914897;29;20408;-74
2022/01/24 08:52:14;;;;;;;9.13;6.03;;;;;;;-0.38;67.10;95789.47;4898179;29;20070;-75
2022/01/24 08:54:40;;;;;;;8.55;6.60;;;;;;;-1.63;69.15;95803.66;4899456;28;20030;-75
2022/01/24 08:57:05;;;;;;;7.20;6.50;;;;;;;-2.26;73.60;95797.47;4932722;29;20114;-75
2022/01/24 08:59:33;;;;;;;7.40;6.35;;;;;;;-2.64;74.74;95783.25;4932916;29;20038;-75
2022/01/24 09:01:59;;;;;;;8.20;6.80;;;;;;;-2.96;75.81;95794.84;4912152;29;20056;-75
2022/01/24 09:04:25;;;;;;;7.63;6.72;;;;;;;-3.14;75.96;95794.81;4913621;29;20431;-75
2022/01/24 09:06:51;;;;;;;8.02;6.63;;;;;;;-3.16;76.75;95802.50;4912197;29;20035;-75
2022/01/24 09:09:16;;;;;;;6.88;6.18;;;;;;;-3.26;77.21;95798.72;4929066;29;20035;-74
2022/01/24 09:11:42;;;;;;;8.80;7.50;;;;;;;-3.08;76.52;95800.44;4912129;29;20556;-75
2022/01/24 09:14:09;;;;;;;8.48;6.90;;;;;;;-3.22;76.75;95803.59;4929331;29;20114;-74
2022/01/24 09:16:35;;;;;;;8.85;7.03;;;;;;;-3.11;76.22;95800.56;4909497;29;20601;-74
2022/01/24 09:19:02;;;;;;;8.05;6.32;;;;;;;-2.58;75.19;95808.31;4909831;29;20028;-74
2022/01/24 09:21:28;;;;;;;8.02;6.68;;;;;;;-2.76;73.53;95807.41;4894368;29;20024;-74
2022/01/24 09:23:54;;;;;;;9.82;6.97;;;;;;;-2.81;73.83;95796.69;4924674;29;20028;-74
2022/01/24 09:26:19;;;;;;;8.02;7.00;;;;;;;-2.95;73.27;95799.00;4928664;28;20043;-74
2022/01/24 09:28:46;;;;;;;7.72;6.93;;;;;;;-3.06;73.57;95800.38;4919366;29;20039;-74
2022/01/24 09:31:11;;;;;;;9.20;6.57;;;;;;;-3.34;73.68;95791.47;4933143;29;20020;-75
2022/01/24 09:33:37;;;;;;;9.23;7.03;;;;;;;-3.18;74.95;95789.09;4931332;29;20070;-74
2022/01/24 09:36:04;;;;;;;8.38;7.03;;;;;;;-3.46;76.75;95791.16;4916457;29;20035;-74
2022/01/24 09:38:32;;;;;;;7.70;6.45;;;;;;;-3.30;75.89;95787.09;4931228;29;20412;-75
2022/01/24 09:41:00;;;;;;;8.18;7.15;;;;;;;-3.24;74.14;95784.28;4916085;29;20659;-75
2022/01/24 09:43:25;;;;;;;9.32;7.63;;;;;;;-3.26;74.89;95799.56;4932532;29;20493;-75
2022/01/24 09:45:51;;;;;;;9.88;7.57;;;;;;;-2.99;74.24;95787.41;4915825;29;20062;-75
2022/01/24 09:48:17;;;;;;;11.90;7.57;;;;;;;-2.81;73.47;95785.72;4933343;29;20032;-75
2022/01/24 09:50:45;;;;;;;10.90;7.63;;;;;;;-1.90;71.20;95787.28;4931498;29;20107;-75
2022/01/24 09:53:13;;;;;;;9.48;7.93;;;;;;;-1.31;65.12;95791.06;4916438;29;20039;-74
2022/01/24 09:55:38;;;;;;;8.63;7.72;;;;;;;0.59;59.87;95781.34;4932229;29;20039;-75
2022/01/24 09:58:03;;;;;;;8.15;7.25;;;;;;;1.04;56.10;95779.44;4931030;29;20509;-75
2022/01/24 10:00:29;;;;;;;9.25;8.35;;;;;;;2.27;51.72;95788.69;4930301;29;20051;-75
2022/01/24 10:02:55;;;;;;;8.85;7.95;;;;;;;2.70;48.92;95779.03;4914972;29;20083;-75
2022/01/24 10:05:27;;;;;;;8.60;7.72;;;;;;;1.99;50.07;95774.34;4916285;29;20036;-75
2022/01/24 10:08:05;;;;;;;8.38;7.57;;;;;;;4.19;47.23;95785.53;4931114;28;20027;-75
2022/01/24 10:10:35;;;;;;;9.38;7.75;;;;;;;4.55;46.05;95771.75;4916094;29;20024;-74
2022/01/24 10:16:33;;;;;;;7.10;6.40;;;;;;;7.74;37.12;95761.16;4932468;29;20090;-76
2022/01/24 10:19:31;;;;;;;6.85;6.00;;;;;;;4.65;42.41;95765.84;4931713;29;20437;-76
2022/01/24 10:22:00;;;;;;;7.00;6.35;;;;;;;3.06;43.83;95776.53;4890594;29;20044;-76
2022/01/24 10:24:26;;;;;;;5.95;5.45;;;;;;;2.86;46.58;95777.88;4930472;29;20554;-75
2022/01/24 10:27:25;;;;;;;7.50;6.60;;;;;;;1.80;51.78;95786.66;4933780;29;20035;-76
2022/01/24 10:29:59;;;;;;;8.70;7.90;;;;;;;2.62;51.13;95788.00;4900335;29;20050;-75
2022/01/24 10:32:32;;;;;;;7.82;7.03;;;;;;;2.45;52.06;95783.19;4931143;29;20275;-76
2022/01/24 10:35:30;;;;;;;8.73;7.00;;;;;;;-0.66;60.22;95785.06;4933025;29;20508;-76
2022/01/24 10:38:34;;;;;;;7.32;6.57;;;;;;;1.11;57.09;95782.44;4932278;29;20031;-76
2022/01/24 10:41:19;;;;;;;10.25;6.90;;;;;;;-0.21;58.13;95784.25;4931090;29;20506;-76
2022/01/24 10:43:46;;;;;;;8.48;6.90;;;;;;;-0.63;61.07;95790.81;4914203;29;20036;-76
2022/01/24 10:46:12;;;;;;;7.50;6.68;;;;;;;-0.87;61.52;95797.22;4912873;29;20528;-76
2022/01/24 10:48:42;;;;;;;6.85;6.15;;;;;;;-1.22;62.47;95782.97;4912467;29;20121;-76
2022/01/24 10:51:11;;;;;;;8.00;6.78;;;;;;;-1.61;63.48;95788.38;4925773;29;20047;-76
2022/01/24 10:53:44;;;;;;;6.88;6.18;;;;;;;-2.05;63.97;95795.63;4931523;29;20047;-76
2022/01/24 10:56:35;;;;;;;7.60;6.10;;;;;;;-1.85;63.66;95790.41;4926943;29;20117;-76
2022/01/24 10:59:10;;;;;;;9.35;5.97;;;;;;;-2.07;60.97;95792.34;4929001;29;20032;-76
2022/01/24 11:01:36;;;;;;;6.45;5.63;;;;;;;-0.90;59.82;95794.81;4939430;28;20516;-76
2022/01/24 11:04:09;;;;;;;9.77;6.70;;;;;;;-1.14;57.90;95783.38;4931731;29;20042;-76
2022/01/24 11:06:50;;;;;;;8.80;6.93;;;;;;;-1.19;60.22;95778.53;4934307;29;20094;-76
2022/01/24 11:09:27;;;;;;;6.53;5.35;;;;;;;0.07;53.83;95780.97;4930347;29;20115;-76
2022/01/24 11:11:57;;;;;;;7.88;6.03;;;;;;;-1.35;58.41;95790.38;4943453;28;20031;-76
